sensor_id;sensor_type;location;lat;lon;timestamp;P1;durP1;ratioP1;P2;durP2;ratioP2
18021;SDS011;9136;48.822;7.966;2023-06-14T00:01:31;14.63;;;13.83;;
18021;SDS011;9136;48.822;7.966;2023-06-14T00:04:20;15.47;;;14.77;;
18021;SDS011;9136;48.822;7.966;2023-06-14T00:07:11;15.50;;;14.80;;
18021;SDS011;9136;48.822;7.966;2023-06-14T00:09:59;15.00;;;14.30;;
18021;SDS011;9136;48.822;7.966;2023-06-14T00:12:47;15.23;;;14.53;;
18021;SDS011;9136;48.822;7.966;2023-06-14T00:15:37;14.93;;;14.33;;
18021;SDS011;9136;48.822;7.966;2023-06-14T00:18:25;15.33;;;14.63;;
18021;SDS011;9136;48.822;7.966;2023-06-14T00:21:16;14.17;;;13.53;;
18021;SDS011;9136;48.822;7.966;2023-06-14T00:24:05;15.77;;;14.80;;
18021;SDS011;9136;48.822;7.966;2023-06-14T00:26:53;15.50;;;14.80;;
18021;SDS011;9136;48.822;7.966;2023-06-14T00:29:41;16.20;;;15.30;;
18021;SDS011;9136;48.822;7.966;2023-06-14T00:32:30;15.57;;;14.77;;
18021;SDS011;9136;48.822;7.966;2023-06-14T00:35:18;14.73;;;14.00;;
18021;SDS011;9136;48.822;7.966;2023-06-14T00:38:07;16.10;;;15.30;;
18021;SDS011;9136;48.822;7.966;2023-06-14T00:40:54;14.73;;;14.10;;
18021;SDS011;9136;48.822;7.966;2023-06-14T00:43:42;16.47;;;15.60;;
18021;SDS011;9136;48.822;7.966;2023-06-14T00:46:30;14.90;;;14.10;;
18021;SDS011;9136;48.822;7.966;2023-06-14T00:49:19;16.80;;;16.00;;
18021;SDS011;9136;48.822;7.966;2023-06-14T00:52:07;16.40;;;15.30;;
18021;SDS011;9136;48.822;7.966;2023-06-14T00:54:58;15.53;;;14.83;;
18021;SDS011;9136;48.822;7.966;2023-06-14T00:57:46;16.00;;;15.23;;
18021;SDS011;9136;48.822;7.966;2023-06-14T01:00:33;15.63;;;14.87;;
18021;SDS011;9136;48.822;7.966;2023-06-14T01:03:21;15.50;;;14.80;;
18021;SDS011;9136;48.822;7.966;2023-06-14T01:06:13;16.17;;;15.37;;
18021;SDS011;9136;48.822;7.966;2023-06-14T01:09:15;14.80;;;14.10;;
18021;SDS011;9136;48.822;7.966;2023-06-14T01:12:11;15.00;;;14.30;;
18021;SDS011;9136;48.822;7.966;2023-06-14T01:15:06;15.40;;;14.60;;
18021;SDS011;9136;48.822;7.966;2023-06-14T01:17:55;15.03;;;14.33;;
18021;SDS011;9136;48.822;7.966;2023-06-14T01:20:48;15.60;;;14.90;;
18021;SDS011;9136;48.822;7.966;2023-06-14T01:23:38;14.57;;;13.93;;
18021;SDS011;9136;48.822;7.966;2023-06-14T01:26:26;16.47;;;15.73;;
18021;SDS011;9136;48.822;7.966;2023-06-14T01:29:15;15.50;;;14.70;;
18021;SDS011;9136;48.822;7.966;2023-06-14T01:32:04;14.77;;;14.17;;
18021;SDS011;9136;48.822;7.966;2023-06-14T01:34:54;16.07;;;15.37;;
18021;SDS011;9136;48.822;7.966;2023-06-14T01:37:42;16.23;;;15.43;;
18021;SDS011;9136;48.822;7.966;2023-06-14T01:40:33;15.30;;;14.60;;
18021;SDS011;9136;48.822;7.966;2023-06-14T01:43:22;15.53;;;14.73;;
18021;SDS011;9136;48.822;7.966;2023-06-14T01:46:10;15.13;;;14.43;;
18021;SDS011;9136;48.822;7.966;2023-06-14T01:49:00;14.87;;;14.17;;
18021;SDS011;9136;48.822;7.966;2023-06-14T01:51:48;16.80;;;16.00;;
18021;SDS011;9136;48.822;7.966;2023-06-14T01:54:36;17.27;;;16.37;;
18021;SDS011;9136;48.822;7.966;2023-06-14T01:57:29;16.17;;;15.37;;
18021;SDS011;9136;48.822;7.966;2023-06-14T02:00:17;17.33;;;16.43;;
18021;SDS011;9136;48.822;7.966;2023-06-14T02:03:05;16.20;;;15.50;;
18021;SDS011;9136;48.822;7.966;2023-06-14T02:05:53;16.20;;;15.40;;
18021;SDS011;9136;48.822;7.966;2023-06-14T02:08:41;18.43;;;17.30;;
18021;SDS011;9136;48.822;7.966;2023-06-14T02:11:29;16.03;;;15.23;;
18021;SDS011;9136;48.822;7.966;2023-06-14T02:14:20;17.60;;;16.80;;
18021;SDS011;9136;48.822;7.966;2023-06-14T02:17:08;16.13;;;15.33;;
18021;SDS011;9136;48.822;7.966;2023-06-14T02:19:55;18.30;;;16.77;;
18021;SDS011;9136;48.822;7.966;2023-06-14T02:22:44;15.20;;;14.47;;
18021;SDS011;9136;48.822;7.966;2023-06-14T02:25:32;17.13;;;16.33;;
18021;SDS011;9136;48.822;7.966;2023-06-14T02:28:20;16.47;;;15.67;;
18021;SDS011;9136;48.822;7.966;2023-06-14T02:31:10;14.47;;;13.87;;
18021;SDS011;9136;48.822;7.966;2023-06-14T02:33:57;17.63;;;16.83;;
18021;SDS011;9136;48.822;7.966;2023-06-14T02:36:45;17.57;;;16.77;;
18021;SDS011;9136;48.822;7.966;2023-06-14T02:39:33;15.83;;;15.13;;
18021;SDS011;9136;48.822;7.966;2023-06-14T02:42:22;17.77;;;16.77;;
18021;SDS011;9136;48.822;7.966;2023-06-14T02:45:10;16.37;;;15.57;;
18021;SDS011;9136;48.822;7.966;2023-06-14T02:48:00;17.30;;;16.50;;
18021;SDS011;9136;48.822;7.966;2023-06-14T02:50:48;16.60;;;15.80;;
18021;SDS011;9136;48.822;7.966;2023-06-14T02:53:37;16.90;;;16.10;;
18021;SDS011;9136;48.822;7.966;2023-06-14T02:56:24;16.57;;;15.77;;
18021;SDS011;9136;48.822;7.966;2023-06-14T02:59:13;16.60;;;15.83;;
18021;SDS011;9136;48.822;7.966;2023-06-14T03:02:01;16.43;;;15.60;;
18021;SDS011;9136;48.822;7.966;2023-06-14T03:04:50;15.60;;;14.90;;
18021;SDS011;9136;48.822;7.966;2023-06-14T03:07:38;15.63;;;14.93;;
18021;SDS011;9136;48.822;7.966;2023-06-14T03:10:31;15.90;;;15.10;;
18021;SDS011;9136;48.822;7.966;2023-06-14T03:13:18;16.70;;;15.90;;
18021;SDS011;9136;48.822;7.966;2023-06-14T03:16:07;16.33;;;15.37;;
18021;SDS011;9136;48.822;7.966;2023-06-14T03:18:55;16.30;;;15.60;;
18021;SDS011;9136;48.822;7.966;2023-06-14T03:21:44;15.40;;;14.70;;
18021;SDS011;9136;48.822;7.966;2023-06-14T03:24:33;14.97;;;14.27;;
18021;SDS011;9136;48.822;7.966;2023-06-14T03:27:22;15.13;;;14.43;;
18021;SDS011;9136;48.822;7.966;2023-06-14T03:30:10;14.60;;;13.93;;
18021;SDS011;9136;48.822;7.966;2023-06-14T03:32:58;16.23;;;15.43;;
18021;SDS011;9136;48.822;7.966;2023-06-14T03:35:47;15.67;;;14.97;;
18021;SDS011;9136;48.822;7.966;2023-06-14T03:38:37;16.63;;;15.70;;
18021;SDS011;9136;48.822;7.966;2023-06-14T03:41:24;15.73;;;14.83;;
18021;SDS011;9136;48.822;7.966;2023-06-14T03:44:14;17.10;;;16.30;;
18021;SDS011;9136;48.822;7.966;2023-06-14T03:47:03;15.67;;;14.97;;
18021;SDS011;9136;48.822;7.966;2023-06-14T03:49:51;16.87;;;16.07;;
18021;SDS011;9136;48.822;7.966;2023-06-14T03:52:39;15.07;;;14.33;;
18021;SDS011;9136;48.822;7.966;2023-06-14T03:55:30;16.80;;;15.43;;
18021;SDS011;9136;48.822;7.966;2023-06-14T03:58:19;15.70;;;15.00;;
18021;SDS011;9136;48.822;7.966;2023-06-14T04:01:07;15.80;;;15.00;;
18021;SDS011;9136;48.822;7.966;2023-06-14T04:03:58;16.80;;;15.97;;
18021;SDS011;9136;48.822;7.966;2023-06-14T04:06:45;16.47;;;15.67;;
18021;SDS011;9136;48.822;7.966;2023-06-14T04:09:34;16.20;;;15.50;;
18021;SDS011;9136;48.822;7.966;2023-06-14T04:12:24;16.50;;;15.53;;
18021;SDS011;9136;48.822;7.966;2023-06-14T04:15:12;15.70;;;15.00;;
18021;SDS011;9136;48.822;7.966;2023-06-14T04:18:00;16.23;;;15.43;;
18021;SDS011;9136;48.822;7.966;2023-06-14T04:20:48;14.90;;;14.20;;
18021;SDS011;9136;48.822;7.966;2023-06-14T04:23:36;16.50;;;15.50;;
18021;SDS011;9136;48.822;7.966;2023-06-14T04:26:24;15.67;;;14.97;;
18021;SDS011;9136;48.822;7.966;2023-06-14T04:29:17;16.17;;;15.37;;
18021;SDS011;9136;48.822;7.966;2023-06-14T04:32:05;15.57;;;14.77;;
18021;SDS011;9136;48.822;7.966;2023-06-14T04:34:56;16.37;;;15.67;;
18021;SDS011;9136;48.822;7.966;2023-06-14T04:37:45;16.13;;;15.43;;
18021;SDS011;9136;48.822;7.966;2023-06-14T04:40:32;17.10;;;16.30;;
18021;SDS011;9136;48.822;7.966;2023-06-14T04:43:22;16.27;;;15.47;;
18021;SDS011;9136;48.822;7.966;2023-06-14T04:46:13;16.37;;;15.37;;
18021;SDS011;9136;48.822;7.966;2023-06-14T04:49:01;17.00;;;16.10;;
18021;SDS011;9136;48.822;7.966;2023-06-14T04:51:49;15.37;;;14.63;;
18021;SDS011;9136;48.822;7.966;2023-06-14T04:54:43;15.80;;;15.10;;
18021;SDS011;9136;48.822;7.966;2023-06-14T04:57:31;17.10;;;16.30;;
18021;SDS011;9136;48.822;7.966;2023-06-14T05:00:18;16.33;;;15.53;;
18021;SDS011;9136;48.822;7.966;2023-06-14T05:03:08;16.10;;;15.20;;
18021;SDS011;9136;48.822;7.966;2023-06-14T05:05:59;15.73;;;15.03;;
18021;SDS011;9136;48.822;7.966;2023-06-14T05:08:46;14.63;;;13.83;;
18021;SDS011;9136;48.822;7.966;2023-06-14T05:11:34;14.97;;;14.27;;
18021;SDS011;9136;48.822;7.966;2023-06-14T05:14:22;16.07;;;15.37;;
18021;SDS011;9136;48.822;7.966;2023-06-14T05:17:10;15.47;;;14.77;;
18021;SDS011;9136;48.822;7.966;2023-06-14T05:19:59;16.27;;;15.57;;
18021;SDS011;9136;48.822;7.966;2023-06-14T05:22:47;16.50;;;15.63;;
18021;SDS011;9136;48.822;7.966;2023-06-14T05:25:36;15.77;;;15.07;;
18021;SDS011;9136;48.822;7.966;2023-06-14T05:28:23;16.70;;;15.87;;
18021;SDS011;9136;48.822;7.966;2023-06-14T05:31:11;15.40;;;14.70;;
18021;SDS011;9136;48.822;7.966;2023-06-14T05:33:59;15.77;;;15.07;;
18021;SDS011;9136;48.822;7.966;2023-06-14T05:36:49;14.73;;;14.03;;
18021;SDS011;9136;48.822;7.966;2023-06-14T05:39:37;16.37;;;15.57;;
18021;SDS011;9136;48.822;7.966;2023-06-14T05:42:25;15.47;;;14.67;;
18021;SDS011;9136;48.822;7.966;2023-06-14T05:45:12;15.53;;;14.57;;
18021;SDS011;9136;48.822;7.966;2023-06-14T05:48:01;16.33;;;15.53;;
18021;SDS011;9136;48.822;7.966;2023-06-14T05:50:49;14.40;;;13.80;;
18021;SDS011;9136;48.822;7.966;2023-06-14T05:53:39;15.33;;;14.63;;
18021;SDS011;9136;48.822;7.966;2023-06-14T05:56:26;16.03;;;15.33;;
18021;SDS011;9136;48.822;7.966;2023-06-14T05:59:14;14.80;;;14.10;;
18021;SDS011;9136;48.822;7.966;2023-06-14T06:02:02;15.77;;;14.97;;
18021;SDS011;9136;48.822;7.966;2023-06-14T06:04:51;15.00;;;14.30;;
18021;SDS011;9136;48.822;7.966;2023-06-14T06:07:39;15.50;;;14.80;;
18021;SDS011;9136;48.822;7.966;2023-06-14T06:10:28;16.60;;;15.50;;
18021;SDS011;9136;48.822;7.966;2023-06-14T06:13:16;17.60;;;16.70;;
18021;SDS011;9136;48.822;7.966;2023-06-14T06:16:04;15.60;;;14.83;;
18021;SDS011;9136;48.822;7.966;2023-06-14T06:18:52;16.57;;;15.77;;
18021;SDS011;9136;48.822;7.966;2023-06-14T06:21:41;19.67;;;14.90;;
18021;SDS011;9136;48.822;7.966;2023-06-14T06:24:29;15.03;;;14.33;;
18021;SDS011;9136;48.822;7.966;2023-06-14T06:27:18;13.80;;;13.20;;
18021;SDS011;9136;48.822;7.966;2023-06-14T06:30:06;15.07;;;14.37;;
18021;SDS011;9136;48.822;7.966;2023-06-14T06:32:55;14.27;;;13.67;;
18021;SDS011;9136;48.822;7.966;2023-06-14T06:35:43;15.57;;;14.77;;
18021;SDS011;9136;48.822;7.966;2023-06-14T06:38:31;14.97;;;14.27;;
18021;SDS011;9136;48.822;7.966;2023-06-14T06:41:22;15.60;;;14.70;;
18021;SDS011;9136;48.822;7.966;2023-06-14T06:44:11;15.50;;;14.70;;
18021;SDS011;9136;48.822;7.966;2023-06-14T06:46:59;15.83;;;15.03;;
18021;SDS011;9136;48.822;7.966;2023-06-14T06:49:48;15.30;;;14.60;;
18021;SDS011;9136;48.822;7.966;2023-06-14T06:52:36;15.25;;;14.55;;
18021;SDS011;9136;48.822;7.966;2023-06-14T06:55:24;15.57;;;14.77;;
18021;SDS011;9136;48.822;7.966;2023-06-14T06:58:12;17.50;;;16.60;;
18021;SDS011;9136;48.822;7.966;2023-06-14T07:01:02;15.98;;;15.13;;
18021;SDS011;9136;48.822;7.966;2023-06-14T07:03:50;15.68;;;14.82;;
18021;SDS011;9136;48.822;7.966;2023-06-14T07:06:38;17.08;;;16.27;;
18021;SDS011;9136;48.822;7.966;2023-06-14T07:09:26;16.05;;;15.25;;
18021;SDS011;9136;48.822;7.966;2023-06-14T07:12:14;15.52;;;14.68;;
18021;SDS011;9136;48.822;7.966;2023-06-14T07:15:01;14.57;;;13.77;;
18021;SDS011;9136;48.822;7.966;2023-06-14T07:17:51;15.75;;;15.00;;
18021;SDS011;9136;48.822;7.966;2023-06-14T07:20:39;16.60;;;15.75;;
18021;SDS011;9136;48.822;7.966;2023-06-14T07:23:28;15.63;;;14.93;;
18021;SDS011;9136;48.822;7.966;2023-06-14T07:26:16;16.05;;;15.05;;
18021;SDS011;9136;48.822;7.966;2023-06-14T07:29:04;17.02;;;16.13;;
18021;SDS011;9136;48.822;7.966;2023-06-14T07:31:52;16.45;;;15.65;;
18021;SDS011;9136;48.822;7.966;2023-06-14T07:34:42;15.07;;;14.35;;
18021;SDS011;9136;48.822;7.966;2023-06-14T07:37:29;15.27;;;14.57;;
18021;SDS011;9136;48.822;7.966;2023-06-14T07:40:18;16.38;;;15.63;;
18021;SDS011;9136;48.822;7.966;2023-06-14T07:43:06;16.02;;;15.00;;
18021;SDS011;9136;48.822;7.966;2023-06-14T07:45:54;14.93;;;14.23;;
18021;SDS011;9136;48.822;7.966;2023-06-14T07:48:43;17.02;;;16.23;;
18021;SDS011;9136;48.822;7.966;2023-06-14T07:51:32;15.80;;;15.10;;
18021;SDS011;9136;48.822;7.966;2023-06-14T07:54:20;14.50;;;13.90;;
18021;SDS011;9136;48.822;7.966;2023-06-14T07:57:10;15.60;;;14.90;;
18021;SDS011;9136;48.822;7.966;2023-06-14T07:59:58;15.93;;;15.15;;
18021;SDS011;9136;48.822;7.966;2023-06-14T08:02:47;15.38;;;14.68;;
18021;SDS011;9136;48.822;7.966;2023-06-14T08:05:34;17.27;;;16.48;;
18021;SDS011;9136;48.822;7.966;2023-06-14T08:08:24;15.18;;;14.55;;
18021;SDS011;9136;48.822;7.966;2023-06-14T08:11:12;17.77;;;16.98;;
18021;SDS011;9136;48.822;7.966;2023-06-14T08:14:00;15.20;;;14.50;;
18021;SDS011;9136;48.822;7.966;2023-06-14T08:16:48;16.13;;;15.43;;
18021;SDS011;9136;48.822;7.966;2023-06-14T08:19:36;18.02;;;16.92;;
18021;SDS011;9136;48.822;7.966;2023-06-14T08:22:24;15.27;;;14.50;;
18021;SDS011;9136;48.822;7.966;2023-06-14T08:25:15;14.80;;;14.10;;
18021;SDS011;9136;48.822;7.966;2023-06-14T08:28:04;15.70;;;14.90;;
18021;SDS011;9136;48.822;7.966;2023-06-14T08:30:52;16.05;;;15.25;;
18021;SDS011;9136;48.822;7.966;2023-06-14T08:33:40;15.02;;;14.23;;
18021;SDS011;9136;48.822;7.966;2023-06-14T08:36:29;14.85;;;14.15;;
18021;SDS011;9136;48.822;7.966;2023-06-14T08:39:17;14.75;;;13.95;;
18021;SDS011;9136;48.822;7.966;2023-06-14T08:42:07;15.40;;;14.70;;
18021;SDS011;9136;48.822;7.966;2023-06-14T08:44:56;15.40;;;14.70;;
18021;SDS011;9136;48.822;7.966;2023-06-14T08:47:44;15.77;;;14.93;;
18021;SDS011;9136;48.822;7.966;2023-06-14T08:50:37;15.55;;;14.85;;
18021;SDS011;9136;48.822;7.966;2023-06-14T08:53:28;15.43;;;14.73;;
18021;SDS011;9136;48.822;7.966;2023-06-14T08:56:19;15.43;;;14.63;;
18021;SDS011;9136;48.822;7.966;2023-06-14T08:59:09;16.50;;;15.40;;
18021;SDS011;9136;48.822;7.966;2023-06-14T09:01:59;15.88;;;15.18;;
18021;SDS011;9136;48.822;7.966;2023-06-14T09:04:47;16.13;;;15.40;;
18021;SDS011;9136;48.822;7.966;2023-06-14T09:07:35;14.98;;;14.27;;
18021;SDS011;9136;48.822;7.966;2023-06-14T09:10:24;14.93;;;14.18;;
18021;SDS011;9136;48.822;7.966;2023-06-14T09:13:12;14.38;;;13.70;;
18021;SDS011;9136;48.822;7.966;2023-06-14T09:16:02;15.07;;;14.38;;
18021;SDS011;9136;48.822;7.966;2023-06-14T09:18:51;14.75;;;14.02;;
18021;SDS011;9136;48.822;7.966;2023-06-14T09:21:38;13.75;;;13.15;;
18021;SDS011;9136;48.822;7.966;2023-06-14T09:24:27;14.82;;;13.85;;
18021;SDS011;9136;48.822;7.966;2023-06-14T09:27:15;13.73;;;13.10;;
18021;SDS011;9136;48.822;7.966;2023-06-14T09:30:03;14.38;;;13.68;;
18021;SDS011;9136;48.822;7.966;2023-06-14T09:32:54;14.27;;;13.45;;
18021;SDS011;9136;48.822;7.966;2023-06-14T09:35:42;14.35;;;13.68;;
18021;SDS011;9136;48.822;7.966;2023-06-14T09:38:33;12.75;;;12.15;;
18021;SDS011;9136;48.822;7.966;2023-06-14T09:41:29;13.65;;;13.05;;
18021;SDS011;9136;48.822;7.966;2023-06-14T09:44:19;15.48;;;14.55;;
18021;SDS011;9136;48.822;7.966;2023-06-14T09:47:07;13.10;;;12.50;;
18021;SDS011;9136;48.822;7.966;2023-06-14T09:49:57;11.95;;;11.45;;
18021;SDS011;9136;48.822;7.966;2023-06-14T09:52:46;13.93;;;13.23;;
18021;SDS011;9136;48.822;7.966;2023-06-14T09:55:40;13.80;;;13.20;;
18021;SDS011;9136;48.822;7.966;2023-06-14T09:58:29;13.45;;;12.70;;
18021;SDS011;9136;48.822;7.966;2023-06-14T10:01:19;13.82;;;12.95;;
18021;SDS011;9136;48.822;7.966;2023-06-14T10:04:09;14.07;;;13.15;;
18021;SDS011;9136;48.822;7.966;2023-06-14T10:06:58;29.02;;;13.68;;
18021;SDS011;9136;48.822;7.966;2023-06-14T10:09:49;12.70;;;12.10;;
18021;SDS011;9136;48.822;7.966;2023-06-14T10:12:37;12.88;;;12.27;;
18021;SDS011;9136;48.822;7.966;2023-06-14T10:15:28;13.52;;;12.65;;
18021;SDS011;9136;48.822;7.966;2023-06-14T10:18:28;13.20;;;12.57;;
18021;SDS011;9136;48.822;7.966;2023-06-14T10:21:22;13.20;;;12.27;;
18021;SDS011;9136;48.822;7.966;2023-06-14T10:24:17;13.32;;;12.52;;
18021;SDS011;9136;48.822;7.966;2023-06-14T10:27:07;12.70;;;12.10;;
18021;SDS011;9136;48.822;7.966;2023-06-14T10:30:03;13.18;;;12.57;;
18021;SDS011;9136;48.822;7.966;2023-06-14T10:33:03;13.07;;;12.48;;
18021;SDS011;9136;48.822;7.966;2023-06-14T10:36:06;12.57;;;11.90;;
18021;SDS011;9136;48.822;7.966;2023-06-14T10:38:59;12.70;;;12.10;;
18021;SDS011;9136;48.822;7.966;2023-06-14T10:41:54;14.00;;;13.18;;
18021;SDS011;9136;48.822;7.966;2023-06-14T10:44:43;12.20;;;11.60;;
18021;SDS011;9136;48.822;7.966;2023-06-14T10:47:33;12.65;;;11.98;;
18021;SDS011;9136;48.822;7.966;2023-06-14T10:50:27;12.98;;;12.32;;
18021;SDS011;9136;48.822;7.966;2023-06-14T10:53:22;12.63;;;12.02;;
18021;SDS011;9136;48.822;7.966;2023-06-14T10:56:10;12.45;;;11.75;;
18021;SDS011;9136;48.822;7.966;2023-06-14T10:59:14;13.65;;;12.90;;
18021;SDS011;9136;48.822;7.966;2023-06-14T11:02:10;12.55;;;11.95;;
18021;SDS011;9136;48.822;7.966;2023-06-14T11:05:20;12.02;;;11.45;;
18021;SDS011;9136;48.822;7.966;2023-06-14T11:08:16;13.20;;;12.60;;
18021;SDS011;9136;48.822;7.966;2023-06-14T11:11:14;12.00;;;11.38;;
18021;SDS011;9136;48.822;7.966;2023-06-14T11:14:02;11.93;;;11.20;;
18021;SDS011;9136;48.822;7.966;2023-06-14T11:16:53;12.32;;;11.48;;
18021;SDS011;9136;48.822;7.966;2023-06-14T11:19:40;11.35;;;10.85;;
18021;SDS011;9136;48.822;7.966;2023-06-14T11:22:28;11.32;;;10.73;;
18021;SDS011;9136;48.822;7.966;2023-06-14T11:25:16;10.77;;;9.98;;
18021;SDS011;9136;48.822;7.966;2023-06-14T11:28:04;10.63;;;10.13;;
18021;SDS011;9136;48.822;7.966;2023-06-14T11:30:59;10.73;;;10.00;;
18021;SDS011;9136;48.822;7.966;2023-06-14T11:33:50;10.82;;;10.23;;
18021;SDS011;9136;48.822;7.966;2023-06-14T11:36:40;10.23;;;9.73;;
18021;SDS011;9136;48.822;7.966;2023-06-14T11:39:29;10.40;;;9.70;;
18021;SDS011;9136;48.822;7.966;2023-06-14T11:42:17;10.45;;;9.85;;
18021;SDS011;9136;48.822;7.966;2023-06-14T11:45:07;10.68;;;10.07;;
18021;SDS011;9136;48.822;7.966;2023-06-14T11:47:56;10.50;;;9.82;;
18021;SDS011;9136;48.822;7.966;2023-06-14T11:50:49;9.77;;;9.38;;
18021;SDS011;9136;48.822;7.966;2023-06-14T11:53:37;9.80;;;9.13;;
18021;SDS011;9136;48.822;7.966;2023-06-14T11:56:25;8.68;;;8.27;;
18021;SDS011;9136;48.822;7.966;2023-06-14T11:59:13;10.02;;;9.52;;
18021;SDS011;9136;48.822;7.966;2023-06-14T12:02:02;9.88;;;9.38;;
18021;SDS011;9136;48.822;7.966;2023-06-14T12:04:51;10.00;;;9.50;;
18021;SDS011;9136;48.822;7.966;2023-06-14T12:07:40;13.13;;;10.27;;
18021;SDS011;9136;48.822;7.966;2023-06-14T12:10:28;10.23;;;9.73;;
18021;SDS011;9136;48.822;7.966;2023-06-14T12:13:17;10.85;;;10.25;;
18021;SDS011;9136;48.822;7.966;2023-06-14T12:16:06;10.35;;;9.75;;
18021;SDS011;9136;48.822;7.966;2023-06-14T12:18:54;10.65;;;10.13;;
18021;SDS011;9136;48.822;7.966;2023-06-14T12:21:45;11.07;;;10.48;;
18021;SDS011;9136;48.822;7.966;2023-06-14T12:24:36;10.60;;;10.10;;
18021;SDS011;9136;48.822;7.966;2023-06-14T12:27:25;10.00;;;9.50;;
18021;SDS011;9136;48.822;7.966;2023-06-14T12:30:14;10.82;;;10.20;;
18021;SDS011;9136;48.822;7.966;2023-06-14T12:33:03;9.98;;;9.57;;
18021;SDS011;9136;48.822;7.966;2023-06-14T12:35:54;11.43;;;10.38;;
18021;SDS011;9136;48.822;7.966;2023-06-14T12:38:43;10.13;;;9.63;;
18021;SDS011;9136;48.822;7.966;2023-06-14T12:41:33;10.23;;;9.70;;
18021;SDS011;9136;48.822;7.966;2023-06-14T12:44:22;10.63;;;10.13;;
18021;SDS011;9136;48.822;7.966;2023-06-14T12:47:10;9.68;;;9.13;;
18021;SDS011;9136;48.822;7.966;2023-06-14T12:49:59;10.95;;;10.35;;
18021;SDS011;9136;48.822;7.966;2023-06-14T12:52:46;10.38;;;9.68;;
18021;SDS011;9136;48.822;7.966;2023-06-14T12:55:34;10.40;;;9.80;;
18021;SDS011;9136;48.822;7.966;2023-06-14T12:58:23;10.18;;;9.63;;
18021;SDS011;9136;48.822;7.966;2023-06-14T13:01:11;9.45;;;9.05;;
18021;SDS011;9136;48.822;7.966;2023-06-14T13:03:59;10.63;;;10.02;;
18021;SDS011;9136;48.822;7.966;2023-06-14T13:06:47;10.07;;;9.57;;
18021;SDS011;9136;48.822;7.966;2023-06-14T13:09:34;10.38;;;9.88;;
18021;SDS011;9136;48.822;7.966;2023-06-14T13:12:22;9.60;;;9.20;;
18021;SDS011;9136;48.822;7.966;2023-06-14T13:15:12;9.60;;;9.15;;
18021;SDS011;9136;48.822;7.966;2023-06-14T13:17:59;9.82;;;9.43;;
18021;SDS011;9136;48.822;7.966;2023-06-14T13:20:49;9.52;;;9.13;;
18021;SDS011;9136;48.822;7.966;2023-06-14T13:23:36;9.57;;;9.18;;
18021;SDS011;9136;48.822;7.966;2023-06-14T13:26:24;10.38;;;9.88;;
18021;SDS011;9136;48.822;7.966;2023-06-14T13:29:14;9.98;;;9.48;;
18021;SDS011;9136;48.822;7.966;2023-06-14T13:32:05;10.00;;;9.50;;
18021;SDS011;9136;48.822;7.966;2023-06-14T13:34:53;10.23;;;9.73;;
18021;SDS011;9136;48.822;7.966;2023-06-14T13:37:41;9.95;;;9.45;;
18021;SDS011;9136;48.822;7.966;2023-06-14T13:40:29;14.20;;;10.13;;
18021;SDS011;9136;48.822;7.966;2023-06-14T13:43:17;10.30;;;9.65;;
18021;SDS011;9136;48.822;7.966;2023-06-14T13:46:05;11.10;;;10.05;;
18021;SDS011;9136;48.822;7.966;2023-06-14T13:48:54;9.95;;;9.55;;
18021;SDS011;9136;48.822;7.966;2023-06-14T13:51:43;9.80;;;9.30;;
18021;SDS011;9136;48.822;7.966;2023-06-14T13:54:31;10.45;;;9.95;;
18021;SDS011;9136;48.822;7.966;2023-06-14T13:57:19;10.93;;;10.32;;
18021;SDS011;9136;48.822;7.966;2023-06-14T14:00:07;10.15;;;9.65;;
18021;SDS011;9136;48.822;7.966;2023-06-14T14:02:56;10.55;;;9.85;;
18021;SDS011;9136;48.822;7.966;2023-06-14T14:05:47;10.10;;;9.60;;
18021;SDS011;9136;48.822;7.966;2023-06-14T14:08:35;10.20;;;9.80;;
18021;SDS011;9136;48.822;7.966;2023-06-14T14:11:23;10.60;;;9.80;;
18021;SDS011;9136;48.822;7.966;2023-06-14T14:14:10;10.32;;;9.73;;
18021;SDS011;9136;48.822;7.966;2023-06-14T14:16:58;9.93;;;9.52;;
18021;SDS011;9136;48.822;7.966;2023-06-14T14:19:46;9.75;;;9.25;;
18021;SDS011;9136;48.822;7.966;2023-06-14T14:22:35;9.80;;;9.30;;
18021;SDS011;9136;48.822;7.966;2023-06-14T14:25:23;10.20;;;9.70;;
18021;SDS011;9136;48.822;7.966;2023-06-14T14:28:11;10.20;;;9.50;;
18021;SDS011;9136;48.822;7.966;2023-06-14T14:31:01;10.40;;;9.90;;
18021;SDS011;9136;48.822;7.966;2023-06-14T14:33:49;10.40;;;9.77;;
18021;SDS011;9136;48.822;7.966;2023-06-14T14:36:37;10.05;;;9.55;;
18021;SDS011;9136;48.822;7.966;2023-06-14T14:39:29;10.05;;;9.55;;
18021;SDS011;9136;48.822;7.966;2023-06-14T14:42:17;9.85;;;9.43;;
18021;SDS011;9136;48.822;7.966;2023-06-14T14:45:07;15.73;;;10.95;;
18021;SDS011;9136;48.822;7.966;2023-06-14T14:47:55;9.70;;;9.20;;
18021;SDS011;9136;48.822;7.966;2023-06-14T14:50:43;9.60;;;9.10;;
18021;SDS011;9136;48.822;7.966;2023-06-14T14:53:31;9.80;;;9.20;;
18021;SDS011;9136;48.822;7.966;2023-06-14T14:56:20;9.95;;;9.45;;
18021;SDS011;9136;48.822;7.966;2023-06-14T14:59:09;9.90;;;9.40;;
18021;SDS011;9136;48.822;7.966;2023-06-14T15:01:57;9.10;;;8.70;;
18021;SDS011;9136;48.822;7.966;2023-06-14T15:04:45;8.88;;;8.48;;
18021;SDS011;9136;48.822;7.966;2023-06-14T15:07:33;8.82;;;8.43;;
18021;SDS011;9136;48.822;7.966;2023-06-14T15:10:21;9.50;;;9.00;;
18021;SDS011;9136;48.822;7.966;2023-06-14T15:13:11;9.30;;;8.80;;
18021;SDS011;9136;48.822;7.966;2023-06-14T15:15:59;9.68;;;9.18;;
18021;SDS011;9136;48.822;7.966;2023-06-14T15:18:47;10.20;;;9.60;;
18021;SDS011;9136;48.822;7.966;2023-06-14T15:21:34;9.20;;;8.80;;
18021;SDS011;9136;48.822;7.966;2023-06-14T15:24:22;9.68;;;9.18;;
18021;SDS011;9136;48.822;7.966;2023-06-14T15:27:10;18.25;;;10.50;;
18021;SDS011;9136;48.822;7.966;2023-06-14T15:30:01;9.40;;;8.90;;
18021;SDS011;9136;48.822;7.966;2023-06-14T15:32:49;8.95;;;8.55;;
18021;SDS011;9136;48.822;7.966;2023-06-14T15:35:37;8.93;;;8.52;;
18021;SDS011;9136;48.822;7.966;2023-06-14T15:38:25;9.13;;;8.73;;
18021;SDS011;9136;48.822;7.966;2023-06-14T15:41:13;10.07;;;9.55;;
18021;SDS011;9136;48.822;7.966;2023-06-14T15:44:01;9.40;;;9.00;;
18021;SDS011;9136;48.822;7.966;2023-06-14T15:46:50;9.93;;;9.38;;
18021;SDS011;9136;48.822;7.966;2023-06-14T15:49:38;9.05;;;8.65;;
18021;SDS011;9136;48.822;7.966;2023-06-14T15:52:25;9.68;;;9.18;;
18021;SDS011;9136;48.822;7.966;2023-06-14T15:55:13;8.95;;;8.55;;
18021;SDS011;9136;48.822;7.966;2023-06-14T15:58:01;9.48;;;9.00;;
18021;SDS011;9136;48.822;7.966;2023-06-14T16:00:49;9.30;;;8.90;;
18021;SDS011;9136;48.822;7.966;2023-06-14T16:03:38;9.40;;;8.90;;
18021;SDS011;9136;48.822;7.966;2023-06-14T16:06:26;10.25;;;9.63;;
18021;SDS011;9136;48.822;7.966;2023-06-14T16:09:14;10.23;;;9.73;;
18021;SDS011;9136;48.822;7.966;2023-06-14T16:12:02;10.50;;;9.90;;
18021;SDS011;9136;48.822;7.966;2023-06-14T16:14:50;10.30;;;9.80;;
18021;SDS011;9136;48.822;7.966;2023-06-14T16:17:38;10.20;;;9.80;;
18021;SDS011;9136;48.822;7.966;2023-06-14T16:20:27;10.35;;;9.75;;
18021;SDS011;9136;48.822;7.966;2023-06-14T16:23:14;10.05;;;9.55;;
18021;SDS011;9136;48.822;7.966;2023-06-14T16:26:02;11.23;;;10.63;;
18021;SDS011;9136;48.822;7.966;2023-06-14T16:28:50;9.45;;;8.95;;
18021;SDS011;9136;48.822;7.966;2023-06-14T16:31:38;10.15;;;9.65;;
18021;SDS011;9136;48.822;7.966;2023-06-14T16:34:26;10.65;;;10.15;;
18021;SDS011;9136;48.822;7.966;2023-06-14T16:37:15;10.10;;;9.60;;
18021;SDS011;9136;48.822;7.966;2023-06-14T16:40:03;10.43;;;9.93;;
18021;SDS011;9136;48.822;7.966;2023-06-14T16:42:52;10.52;;;10.02;;
18021;SDS011;9136;48.822;7.966;2023-06-14T16:45:40;10.88;;;10.38;;
18021;SDS011;9136;48.822;7.966;2023-06-14T16:48:27;10.23;;;9.73;;
18021;SDS011;9136;48.822;7.966;2023-06-14T16:51:15;11.77;;;10.90;;